Time;durP1;ratioP1;P1;durP2;ratioP2;P2;SDS_P1;SDS_P2;PMS_P1;PMS_P2;Temp;Humidity;BMP_temperature;BMP_pressure;BME280_temperature;BME280_humidity;BME280_pressure;Samples;Min_cycle;Max_cycle;Signal;HPM_P1;HPM_P2
2021/03/08 12:57:11;;;;;;;5.75;3.67;;;;;;;;;;5127836;27;20306;-77
2021/03/08 12:59:37;;;;;;;4.65;3.00;;;;;;;;;;5128704;28;20684;-76
2021/03/08 13:02:03;;;;;;;5.50;3.17;;;;;;;;;;5109880;28;20027;-76
2021/03/08 13:04:29;;;;;;;3.55;2.63;;;;;;;;;;5104383;28;20031;-76
2021/03/08 13:06:55;;;;;;;4.03;2.47;;;;;;;;;;5120085;28;20023;-76
2021/03/08 13:09:21;;;;;;;5.22;2.88;;;;;;;;;;5121906;28;20411;-77
2021/03/08 13:11:47;;;;;;;4.47;2.78;;;;;;;;;;5129509;28;20038;-77
2021/03/08 13:14:13;;;;;;;5.78;3.22;;;;;;;;;;5129096;28;20459;-77
2021/03/08 13:16:39;;;;;;;7.18;3.92;;;;;;;;;;5129069;28;20519;-79
2021/03/08 13:19:05;;;;;;;4.20;2.92;;;;;;;;;;5125033;28;21325;-78
2021/03/08 13:21:31;;;;;;;5.10;3.50;;;;;;;;;;5123152;28;20038;-77
2021/03/08 13:23:57;;;;;;;5.47;3.58;;;;;;;;;;5131259;28;20034;-77
2021/03/08 13:26:23;;;;;;;7.65;3.42;;;;;;;;;;5130289;27;20415;-77
2021/03/08 13:28:53;;;;;;;5.90;3.33;;;;;;;;;;5125164;28;20039;-77
2021/03/08 13:31:19;;;;;;;5.18;3.30;;;;;;;;;;5127703;28;20383;-77
2021/03/08 13:33:45;;;;;;;6.07;3.20;;;;;;;;;;5130787;28;20055;-77
2021/03/08 13:36:11;;;;;;;5.30;3.60;;;;;;;;;;5102180;28;20121;-77
2021/03/08 13:38:37;;;;;;;9.02;4.25;;;;;;;;;;5129934;28;20019;-77
2021/03/08 13:41:03;;;;;;;5.47;3.30;;;;;;;;;;5130153;28;20440;-78
2021/03/08 13:43:29;;;;;;;8.40;3.95;;;;;;;;;;5131081;28;20024;-77
2021/03/08 13:45:55;;;;;;;4.10;3.35;;;;;;;;;;5108746;28;20027;-77
2021/03/08 13:48:21;;;;;;;4.85;3.42;;;;;;;;;;5124219;28;20110;-78
2021/03/08 13:50:47;;;;;;;5.05;3.78;;;;;;;;;;5126325;28;20028;-78
2021/03/08 13:53:13;;;;;;;6.53;4.07;;;;;;;;;;5131153;28;20123;-78
2021/03/08 13:55:39;;;;;;;6.50;3.63;;;;;;;;;;5131778;28;20162;-78
2021/03/08 13:58:05;;;;;;;7.40;4.50;;;;;;;;;;5132418;28;20508;-78
2021/03/08 14:00:31;;;;;;;7.88;3.58;;;;;;;;;;5131360;28;20055;-78
2021/03/08 14:02:57;;;;;;;4.65;3.45;;;;;;;;;;5116743;28;20024;-77
2021/03/08 14:05:24;;;;;;;7.28;3.78;;;;;;;;;;5131998;28;20041;-78
2021/03/08 14:07:50;;;;;;;5.55;3.70;;;;;;;;;;5109882;28;20028;-78
2021/03/08 14:10:16;;;;;;;6.55;3.45;;;;;;;;;;5119307;28;20063;-78
2021/03/08 14:12:43;;;;;;;6.38;3.97;;;;;;;;;;5124586;28;20032;-78
2021/03/08 14:15:10;;;;;;;7.90;3.60;;;;;;;;;;5125782;28;20622;-78
2021/03/08 14:17:36;;;;;;;8.45;4.53;;;;;;;;;;5120982;28;20020;-78
2021/03/08 14:20:03;;;;;;;8.05;4.00;;;;;;;;;;5118613;28;20028;-78
2021/03/08 14:22:29;;;;;;;6.03;3.63;;;;;;;;;;5121358;28;20058;-78
2021/03/08 14:24:55;;;;;;;5.97;3.92;;;;;;;;;;5088608;28;20405;-78
2021/03/08 14:27:21;;;;;;;7.50;4.10;;;;;;;;;;5121123;28;20028;-78
2021/03/08 14:29:47;;;;;;;5.45;3.78;;;;;;;;;;5125109;28;20028;-78
2021/03/08 14:32:16;;;;;;;6.32;3.67;;;;;;;;;;5110767;28;20437;-78
2021/03/08 14:34:42;;;;;;;5.55;3.22;;;;;;;;;;5091415;28;20352;-78
2021/03/08 14:37:09;;;;;;;5.05;3.38;;;;;;;;;;5117167;28;20050;-78
2021/03/08 14:39:35;;;;;;;6.50;4.22;;;;;;;;;;5092810;28;20031;-78
2021/03/08 14:42:01;;;;;;;5.82;3.60;;;;;;;;;;5116730;28;20020;-79
2021/03/08 14:44:27;;;;;;;5.03;3.10;;;;;;;;;;5105875;28;20027;-78
2021/03/08 14:46:53;;;;;;;5.93;3.67;;;;;;;;;;5114841;28;20057;-78
2021/03/08 14:49:19;;;;;;;5.90;4.15;;;;;;;;;;5117910;28;20040;-78
2021/03/08 14:51:45;;;;;;;8.10;3.80;;;;;;;;;;5115912;28;20385;-78
2021/03/08 14:54:11;;;;;;;7.93;2.88;;;;;;;;;;5093983;28;20036;-78
2021/03/08 14:56:37;;;;;;;5.75;2.70;;;;;;;;;;5101537;28;20654;-78
2021/03/08 14:59:03;;;;;;;5.25;3.50;;;;;;;;;;5111810;28;20028;-78
2021/03/08 15:01:29;;;;;;;6.20;3.50;;;;;;;;;;5112037;28;20035;-78
2021/03/08 15:03:55;;;;;;;10.02;4.47;;;;;;;;;;5112019;28;20027;-77
2021/03/08 15:06:21;;;;;;;9.43;4.63;;;;;;;;;;5111751;27;20465;-81
2021/03/08 15:08:47;;;;;;;6.47;3.88;;;;;;;;;;5105341;28;20038;-79
2021/03/08 15:11:13;;;;;;;6.90;2.85;;;;;;;;;;5101429;28;20039;-78
2021/03/08 15:13:39;;;;;;;5.85;3.00;;;;;;;;;;5105284;28;20123;-78
2021/03/08 15:16:06;;;;;;;4.00;3.15;;;;;;;;;;5096740;28;20474;-78
2021/03/08 15:18:32;;;;;;;5.22;3.10;;;;;;;;;;5096735;28;20027;-79
2021/03/08 15:20:58;;;;;;;4.40;3.10;;;;;;;;;;5099677;28;20039;-79
2021/03/08 15:23:24;;;;;;;4.40;2.70;;;;;;;;;;5111855;27;20043;-77
2021/03/08 15:25:50;;;;;;;4.70;2.85;;;;;;;;;;5106713;28;20046;-78
2021/03/08 15:28:16;;;;;;;4.22;3.10;;;;;;;;;;5117129;28;20075;-79
2021/03/08 15:30:44;;;;;;;3.95;2.65;;;;;;;;;;5118290;27;20035;-79
2021/03/08 15:33:10;;;;;;;5.13;3.08;;;;;;;;;;5103425;28;20120;-78
2021/03/08 15:35:36;;;;;;;5.22;2.70;;;;;;;;;;5113485;28;20027;-77
2021/03/08 15:38:02;;;;;;;5.10;4.28;;;;;;;;;;5113596;28;20066;-77
2021/03/08 15:40:28;;;;;;;4.82;2.53;;;;;;;;;;5116022;28;20032;-80
2021/03/08 15:42:54;;;;;;;4.22;2.30;;;;;;;;;;5087372;28;20028;-78
2021/03/08 15:45:21;;;;;;;4.35;2.53;;;;;;;;;;5101703;28;20032;-78
2021/03/08 15:47:47;;;;;;;4.18;2.83;;;;;;;;;;5115054;28;20042;-78
2021/03/08 15:50:13;;;;;;;5.38;2.95;;;;;;;;;;5113807;28;20073;-77
2021/03/08 15:52:39;;;;;;;5.25;2.78;;;;;;;;;;5112149;28;20027;-78
2021/03/08 15:55:06;;;;;;;4.97;3.17;;;;;;;;;;5106168;27;20088;-78
2021/03/08 15:57:32;;;;;;;7.07;3.20;;;;;;;;;;5111066;28;20045;-79
2021/03/08 15:59:58;;;;;;;6.53;2.75;;;;;;;;;;5090479;28;20068;-79
2021/03/08 16:02:24;;;;;;;4.97;2.80;;;;;;;;;;5108054;28;20027;-78
2021/03/08 16:04:50;;;;;;;4.10;2.70;;;;;;;;;;5108873;28;20020;-79
2021/03/08 16:07:16;;;;;;;5.28;2.85;;;;;;;;;;5106876;28;20026;-77
2021/03/08 16:09:42;;;;;;;5.30;3.08;;;;;;;;;;5106918;27;20511;-79
2021/03/08 16:12:08;;;;;;;4.95;2.90;;;;;;;;;;5105135;28;20028;-81
2021/03/08 16:14:34;;;;;;;5.22;3.15;;;;;;;;;;5077151;28;20050;-80
2021/03/08 16:17:00;;;;;;;5.60;2.72;;;;;;;;;;5101855;28;20484;-79
2021/03/08 16:19:26;;;;;;;4.55;2.90;;;;;;;;;;5110424;27;20484;-79
2021/03/08 16:21:52;;;;;;;3.95;2.38;;;;;;;;;;5111825;27;20038;-81
2021/03/08 16:24:18;;;;;;;5.20;2.47;;;;;;;;;;5110833;28;20028;-80
2021/03/08 16:26:44;;;;;;;5.25;2.60;;;;;;;;;;5082536;28;20032;-80
2021/03/08 16:29:10;;;;;;;3.88;2.58;;;;;;;;;;5086037;28;20032;-80
2021/03/08 16:31:36;;;;;;;4.90;2.33;;;;;;;;;;5100811;28;20114;-80
2021/03/08 16:34:02;;;;;;;4.28;2.55;;;;;;;;;;5112043;28;20034;-80
2021/03/08 16:36:29;;;;;;;8.38;2.58;;;;;;;;;;5113283;28;20034;-79
2021/03/08 16:38:55;;;;;;;4.82;2.97;;;;;;;;;;5095917;28;20032;-79
2021/03/08 16:41:21;;;;;;;3.72;2.38;;;;;;;;;;5094726;28;20020;-80
2021/03/08 16:43:47;;;;;;;4.20;2.72;;;;;;;;;;5091825;28;20172;-78
2021/03/08 16:46:13;;;;;;;6.68;2.83;;;;;;;;;;5112091;28;20083;-78
2021/03/08 16:48:39;;;;;;;5.22;2.72;;;;;;;;;;5118766;28;20114;-78
2021/03/08 16:51:06;;;;;;;4.45;2.70;;;;;;;;;;5109730;28;20087;-78
2021/03/08 16:53:32;;;;;;;5.15;3.08;;;;;;;;;;5109622;28;20107;-78
2021/03/08 16:55:58;;;;;;;9.57;4.43;;;;;;;;;;5078717;28;20035;-78
2021/03/08 16:58:28;;;;;;;9.27;6.60;;;;;;;;;;5114425;28;20031;-78
2021/03/08 17:00:54;;;;;;;9.63;6.40;;;;;;;;;;5111204;28;20381;-78
2021/03/08 17:03:20;;;;;;;10.35;5.95;;;;;;;;;;5094847;28;20015;-78
2021/03/08 17:05:46;;;;;;;9.40;4.82;;;;;;;;;;5113532;28;20392;-78
2021/03/08 17:08:12;;;;;;;6.25;3.63;;;;;;;;;;5094522;28;20119;-78
2021/03/08 17:10:38;;;;;;;10.70;3.58;;;;;;;;;;5094560;28;20463;-78
2021/03/08 17:13:05;;;;;;;7.78;3.83;;;;;;;;;;5113921;28;20028;-78
2021/03/08 17:15:31;;;;;;;7.65;3.65;;;;;;;;;;5095602;28;20027;-78
2021/03/08 17:17:57;;;;;;;7.07;4.13;;;;;;;;;;5113497;28;20016;-78
2021/03/08 17:20:23;;;;;;;4.35;3.03;;;;;;;;;;5113368;28;20078;-77
2021/03/08 17:22:49;;;;;;;5.75;3.33;;;;;;;;;;5095651;28;20019;-77
2021/03/08 17:25:15;;;;;;;7.85;2.78;;;;;;;;;;5095561;28;20035;-77
2021/03/08 17:27:42;;;;;;;4.55;2.85;;;;;;;;;;5114930;28;20024;-78
2021/03/08 17:30:09;;;;;;;4.57;2.78;;;;;;;;;;5123920;28;20114;-78
2021/03/08 17:32:35;;;;;;;6.55;3.33;;;;;;;;;;5118986;28;20019;-77
2021/03/08 17:35:02;;;;;;;4.97;3.28;;;;;;;;;;5113566;28;20031;-77
2021/03/08 17:37:28;;;;;;;4.93;3.35;;;;;;;;;;5095528;28;20115;-77
2021/03/08 17:39:54;;;;;;;5.07;3.08;;;;;;;;;;5112275;28;20074;-76
2021/03/08 17:42:20;;;;;;;6.70;3.40;;;;;;;;;;5111827;28;20488;-76
2021/03/08 17:44:46;;;;;;;14.85;7.72;;;;;;;;;;5097869;28;20027;-76
2021/03/08 17:47:12;;;;;;;12.20;5.60;;;;;;;;;;5115370;28;20110;-76
2021/03/08 17:49:38;;;;;;;17.65;8.55;;;;;;;;;;5115731;28;20114;-77
2021/03/08 17:52:04;;;;;;;8.50;5.82;;;;;;;;;;5114213;28;20042;-77
2021/03/08 17:54:30;;;;;;;13.05;7.13;;;;;;;;;;5111461;28;20098;-76
2021/03/08 17:56:56;;;;;;;15.48;8.80;;;;;;;;;;5097379;28;20118;-76
2021/03/08 17:59:22;;;;;;;12.75;6.95;;;;;;;;;;5109462;28;20342;-76
2021/03/08 18:01:49;;;;;;;18.52;9.48;;;;;;;;;;5113315;28;20023;-76
2021/03/08 18:04:15;;;;;;;14.77;8.63;;;;;;;;;;5109164;28;20062;-76
2021/03/08 18:06:41;;;;;;;11.35;7.20;;;;;;;;;;5114380;28;20038;-76
2021/03/08 18:09:07;;;;;;;11.82;6.82;;;;;;;;;;5113938;28;20111;-76
2021/03/08 18:11:33;;;;;;;13.65;7.57;;;;;;;;;;5113693;28;20031;-76
2021/03/08 18:13:59;;;;;;;12.45;7.07;;;;;;;;;;5109775;27;20031;-76
2021/03/08 18:16:25;;;;;;;11.20;5.80;;;;;;;;;;5114240;28;20028;-76
2021/03/08 18:18:52;;;;;;;12.30;5.40;;;;;;;;;;5114228;28;20388;-76
2021/03/08 18:21:18;;;;;;;9.13;6.32;;;;;;;;;;5096218;28;20032;-76
2021/03/08 18:23:44;;;;;;;9.20;5.93;;;;;;;;;;5095333;28;20024;-76
2021/03/08 18:26:10;;;;;;;8.18;5.03;;;;;;;;;;5096818;28;20032;-76
2021/03/08 18:28:36;;;;;;;8.43;4.80;;;;;;;;;;5114242;28;20484;-76
2021/03/08 18:31:02;;;;;;;9.60;5.00;;;;;;;;;;5096531;28;20165;-76
2021/03/08 18:33:28;;;;;;;10.77;5.75;;;;;;;;;;5113569;28;20081;-76
2021/03/08 18:35:54;;;;;;;11.55;5.22;;;;;;;;;;5075302;28;20032;-75
2021/03/08 18:38:20;;;;;;;10.88;5.78;;;;;;;;;;5093590;28;20109;-75
2021/03/08 18:40:46;;;;;;;9.73;6.53;;;;;;;;;;5093078;28;20458;-75
2021/03/08 18:43:12;;;;;;;10.38;6.72;;;;;;;;;;5105436;28;20031;-75
2021/03/08 18:45:40;;;;;;;13.02;5.82;;;;;;;;;;5113970;28;20488;-75
2021/03/08 18:48:07;;;;;;;9.07;5.18;;;;;;;;;;5113553;28;20104;-75
2021/03/08 18:50:33;;;;;;;9.25;5.75;;;;;;;;;;5113602;28;20050;-75
2021/03/08 18:52:59;;;;;;;11.20;5.97;;;;;;;;;;5094679;28;20496;-76
